sensor_id;sensor_type;location;lat;lon;timestamp;P1;durP1;ratioP1;P2;durP2;ratioP2
59649;SDS011;46162;57.568;25.814;2023-11-19T00:00:41;10.82;;;3.40;;
59649;SDS011;46162;57.568;25.814;2023-11-19T00:03:19;10.57;;;3.88;;
59649;SDS011;46162;57.568;25.814;2023-11-19T00:05:48;9.57;;;3.67;;
59649;SDS011;46162;57.568;25.814;2023-11-19T00:08:17;9.93;;;3.40;;
59649;SDS011;46162;57.568;25.814;2023-11-19T00:10:45;7.78;;;3.05;;
59649;SDS011;46162;57.568;25.814;2023-11-19T00:13:16;11.02;;;3.83;;
59649;SDS011;46162;57.568;25.814;2023-11-19T00:15:45;10.05;;;4.38;;
59649;SDS011;46162;57.568;25.814;2023-11-19T00:18:14;9.35;;;3.75;;
59649;SDS011;46162;57.568;25.814;2023-11-19T00:20:43;8.25;;;2.90;;
59649;SDS011;46162;57.568;25.814;2023-11-19T00:23:11;9.85;;;3.45;;
59649;SDS011;46162;57.568;25.814;2023-11-19T00:25:40;8.07;;;3.03;;
59649;SDS011;46162;57.568;25.814;2023-11-19T00:28:08;8.02;;;3.40;;
59649;SDS011;46162;57.568;25.814;2023-11-19T00:30:38;9.27;;;3.83;;
59649;SDS011;46162;57.568;25.814;2023-11-19T00:33:07;9.32;;;3.60;;
59649;SDS011;46162;57.568;25.814;2023-11-19T00:35:37;11.60;;;3.50;;
59649;SDS011;46162;57.568;25.814;2023-11-19T00:38:05;8.75;;;3.22;;
59649;SDS011;46162;57.568;25.814;2023-11-19T00:40:37;8.98;;;3.15;;
59649;SDS011;46162;57.568;25.814;2023-11-19T00:43:05;7.50;;;3.53;;
59649;SDS011;46162;57.568;25.814;2023-11-19T00:45:34;8.60;;;4.00;;
59649;SDS011;46162;57.568;25.814;2023-11-19T00:48:04;8.70;;;3.50;;
59649;SDS011;46162;57.568;25.814;2023-11-19T00:50:34;8.60;;;3.80;;
59649;SDS011;46162;57.568;25.814;2023-11-19T00:53:05;11.05;;;4.38;;
59649;SDS011;46162;57.568;25.814;2023-11-19T00:55:33;9.13;;;3.70;;
59649;SDS011;46162;57.568;25.814;2023-11-19T00:58:13;10.93;;;4.05;;
59649;SDS011;46162;57.568;25.814;2023-11-19T01:00:42;8.50;;;3.30;;
59649;SDS011;46162;57.568;25.814;2023-11-19T01:03:13;9.35;;;3.95;;
59649;SDS011;46162;57.568;25.814;2023-11-19T01:05:42;10.57;;;3.78;;
59649;SDS011;46162;57.568;25.814;2023-11-19T01:10:42;8.73;;;3.53;;
59649;SDS011;46162;57.568;25.814;2023-11-19T01:13:11;7.95;;;3.72;;
59649;SDS011;46162;57.568;25.814;2023-11-19T01:15:40;9.82;;;4.07;;
59649;SDS011;46162;57.568;25.814;2023-11-19T01:18:10;11.20;;;4.53;;
59649;SDS011;46162;57.568;25.814;2023-11-19T01:20:41;11.32;;;4.30;;
59649;SDS011;46162;57.568;25.814;2023-11-19T01:23:10;9.18;;;4.15;;
59649;SDS011;46162;57.568;25.814;2023-11-19T01:25:38;10.15;;;5.00;;
59649;SDS011;46162;57.568;25.814;2023-11-19T01:28:07;11.00;;;4.50;;
59649;SDS011;46162;57.568;25.814;2023-11-19T01:30:35;9.75;;;4.78;;
59649;SDS011;46162;57.568;25.814;2023-11-19T01:33:05;9.70;;;4.53;;
59649;SDS011;46162;57.568;25.814;2023-11-19T01:35:34;9.50;;;4.68;;
59649;SDS011;46162;57.568;25.814;2023-11-19T01:38:04;9.95;;;4.38;;
59649;SDS011;46162;57.568;25.814;2023-11-19T01:40:35;12.20;;;5.03;;
59649;SDS011;46162;57.568;25.814;2023-11-19T01:43:04;10.30;;;4.60;;
59649;SDS011;46162;57.568;25.814;2023-11-19T01:45:33;10.43;;;4.30;;
59649;SDS011;46162;57.568;25.814;2023-11-19T01:48:02;10.68;;;5.40;;
59649;SDS011;46162;57.568;25.814;2023-11-19T01:50:32;9.23;;;4.78;;
59649;SDS011;46162;57.568;25.814;2023-11-19T01:53:02;12.48;;;5.10;;
59649;SDS011;46162;57.568;25.814;2023-11-19T01:55:32;10.48;;;4.72;;
59649;SDS011;46162;57.568;25.814;2023-11-19T01:58:01;11.93;;;4.93;;
59649;SDS011;46162;57.568;25.814;2023-11-19T02:00:30;11.25;;;4.70;;
59649;SDS011;46162;57.568;25.814;2023-11-19T02:03:01;10.80;;;4.80;;
59649;SDS011;46162;57.568;25.814;2023-11-19T02:05:30;11.23;;;5.60;;
59649;SDS011;46162;57.568;25.814;2023-11-19T02:08:00;10.75;;;5.00;;
59649;SDS011;46162;57.568;25.814;2023-11-19T02:10:29;12.48;;;5.57;;
59649;SDS011;46162;57.568;25.814;2023-11-19T02:13:01;9.73;;;5.53;;
59649;SDS011;46162;57.568;25.814;2023-11-19T02:15:32;11.18;;;5.20;;
59649;SDS011;46162;57.568;25.814;2023-11-19T02:18:20;12.77;;;5.68;;
59649;SDS011;46162;57.568;25.814;2023-11-19T02:20:50;11.30;;;5.28;;
59649;SDS011;46162;57.568;25.814;2023-11-19T02:23:19;11.35;;;5.32;;
59649;SDS011;46162;57.568;25.814;2023-11-19T02:25:53;13.82;;;5.65;;
59649;SDS011;46162;57.568;25.814;2023-11-19T02:28:30;13.27;;;6.22;;
59649;SDS011;46162;57.568;25.814;2023-11-19T02:30:59;11.50;;;5.05;;
59649;SDS011;46162;57.568;25.814;2023-11-19T02:33:28;11.50;;;4.75;;
59649;SDS011;46162;57.568;25.814;2023-11-19T02:35:57;10.70;;;5.68;;
59649;SDS011;46162;57.568;25.814;2023-11-19T02:38:25;13.65;;;6.57;;
59649;SDS011;46162;57.568;25.814;2023-11-19T02:40:55;12.10;;;4.93;;
59649;SDS011;46162;57.568;25.814;2023-11-19T02:43:23;12.13;;;5.90;;
59649;SDS011;46162;57.568;25.814;2023-11-19T02:45:53;13.25;;;6.38;;
59649;SDS011;46162;57.568;25.814;2023-11-19T02:48:23;13.55;;;6.25;;
59649;SDS011;46162;57.568;25.814;2023-11-19T02:50:51;11.85;;;6.03;;
59649;SDS011;46162;57.568;25.814;2023-11-19T02:53:20;14.90;;;5.72;;
59649;SDS011;46162;57.568;25.814;2023-11-19T02:55:49;12.55;;;6.32;;
59649;SDS011;46162;57.568;25.814;2023-11-19T02:58:18;13.70;;;6.03;;
59649;SDS011;46162;57.568;25.814;2023-11-19T03:00:51;11.60;;;5.55;;
59649;SDS011;46162;57.568;25.814;2023-11-19T03:03:24;13.07;;;5.78;;
59649;SDS011;46162;57.568;25.814;2023-11-19T03:05:58;12.60;;;6.10;;
59649;SDS011;46162;57.568;25.814;2023-11-19T03:08:27;13.55;;;6.30;;
59649;SDS011;46162;57.568;25.814;2023-11-19T03:10:56;11.43;;;5.85;;
59649;SDS011;46162;57.568;25.814;2023-11-19T03:13:26;10.30;;;5.40;;
59649;SDS011;46162;57.568;25.814;2023-11-19T03:15:56;11.57;;;5.53;;
59649;SDS011;46162;57.568;25.814;2023-11-19T03:18:25;14.05;;;5.82;;
59649;SDS011;46162;57.568;25.814;2023-11-19T03:20:55;12.57;;;5.93;;
59649;SDS011;46162;57.568;25.814;2023-11-19T03:23:25;14.10;;;5.67;;
59649;SDS011;46162;57.568;25.814;2023-11-19T03:25:55;13.63;;;5.88;;
59649;SDS011;46162;57.568;25.814;2023-11-19T03:28:24;12.57;;;5.70;;
59649;SDS011;46162;57.568;25.814;2023-11-19T03:30:53;12.82;;;5.72;;
59649;SDS011;46162;57.568;25.814;2023-11-19T03:33:23;12.00;;;5.72;;
59649;SDS011;46162;57.568;25.814;2023-11-19T03:35:56;11.43;;;5.20;;
59649;SDS011;46162;57.568;25.814;2023-11-19T03:38:24;11.35;;;5.53;;
59649;SDS011;46162;57.568;25.814;2023-11-19T03:40:53;11.50;;;5.80;;
59649;SDS011;46162;57.568;25.814;2023-11-19T03:43:22;12.80;;;5.72;;
59649;SDS011;46162;57.568;25.814;2023-11-19T03:45:50;11.65;;;5.75;;
59649;SDS011;46162;57.568;25.814;2023-11-19T03:48:19;12.70;;;6.15;;
59649;SDS011;46162;57.568;25.814;2023-11-19T03:50:49;13.18;;;5.70;;
59649;SDS011;46162;57.568;25.814;2023-11-19T03:53:18;13.15;;;5.97;;
59649;SDS011;46162;57.568;25.814;2023-11-19T03:55:46;12.18;;;5.97;;
59649;SDS011;46162;57.568;25.814;2023-11-19T03:58:16;12.95;;;5.53;;
59649;SDS011;46162;57.568;25.814;2023-11-19T04:00:45;13.02;;;5.90;;
59649;SDS011;46162;57.568;25.814;2023-11-19T04:03:14;11.48;;;6.22;;
59649;SDS011;46162;57.568;25.814;2023-11-19T04:05:43;11.30;;;5.53;;
59649;SDS011;46162;57.568;25.814;2023-11-19T04:08:13;11.38;;;5.00;;
59649;SDS011;46162;57.568;25.814;2023-11-19T04:10:42;10.57;;;4.87;;
59649;SDS011;46162;57.568;25.814;2023-11-19T04:13:10;10.55;;;4.88;;
59649;SDS011;46162;57.568;25.814;2023-11-19T04:15:39;11.60;;;4.82;;
59649;SDS011;46162;57.568;25.814;2023-11-19T04:18:08;12.75;;;5.50;;
59649;SDS011;46162;57.568;25.814;2023-11-19T04:20:36;10.63;;;5.00;;
59649;SDS011;46162;57.568;25.814;2023-11-19T04:23:05;12.13;;;5.43;;
59649;SDS011;46162;57.568;25.814;2023-11-19T04:25:36;10.70;;;5.00;;
59649;SDS011;46162;57.568;25.814;2023-11-19T04:28:05;13.63;;;6.80;;
59649;SDS011;46162;57.568;25.814;2023-11-19T04:30:34;14.55;;;5.55;;
59649;SDS011;46162;57.568;25.814;2023-11-19T04:33:04;9.73;;;5.13;;
59649;SDS011;46162;57.568;25.814;2023-11-19T04:35:33;13.52;;;6.70;;
59649;SDS011;46162;57.568;25.814;2023-11-19T04:38:01;14.95;;;6.03;;
59649;SDS011;46162;57.568;25.814;2023-11-19T04:40:30;12.55;;;5.43;;
59649;SDS011;46162;57.568;25.814;2023-11-19T04:43:02;13.35;;;5.72;;
59649;SDS011;46162;57.568;25.814;2023-11-19T04:45:32;14.43;;;6.63;;
59649;SDS011;46162;57.568;25.814;2023-11-19T04:48:00;13.00;;;6.10;;
59649;SDS011;46162;57.568;25.814;2023-11-19T04:50:29;13.45;;;5.85;;
59649;SDS011;46162;57.568;25.814;2023-11-19T04:52:58;12.55;;;6.00;;
59649;SDS011;46162;57.568;25.814;2023-11-19T04:55:27;11.88;;;5.10;;
59649;SDS011;46162;57.568;25.814;2023-11-19T04:57:55;10.30;;;5.40;;
59649;SDS011;46162;57.568;25.814;2023-11-19T05:00:26;11.43;;;5.38;;
59649;SDS011;46162;57.568;25.814;2023-11-19T05:02:54;13.60;;;5.53;;
59649;SDS011;46162;57.568;25.814;2023-11-19T05:05:23;12.13;;;5.60;;
59649;SDS011;46162;57.568;25.814;2023-11-19T05:07:52;11.52;;;5.63;;
59649;SDS011;46162;57.568;25.814;2023-11-19T05:10:21;11.65;;;5.55;;
59649;SDS011;46162;57.568;25.814;2023-11-19T05:12:54;11.05;;;5.07;;
59649;SDS011;46162;57.568;25.814;2023-11-19T05:15:23;9.82;;;5.05;;
59649;SDS011;46162;57.568;25.814;2023-11-19T05:17:53;12.05;;;5.57;;
59649;SDS011;46162;57.568;25.814;2023-11-19T05:20:22;9.68;;;4.78;;
59649;SDS011;46162;57.568;25.814;2023-11-19T05:22:51;9.35;;;4.72;;
59649;SDS011;46162;57.568;25.814;2023-11-19T05:25:20;8.43;;;4.35;;
59649;SDS011;46162;57.568;25.814;2023-11-19T05:27:48;9.38;;;4.60;;
59649;SDS011;46162;57.568;25.814;2023-11-19T05:30:17;11.27;;;4.72;;
59649;SDS011;46162;57.568;25.814;2023-11-19T05:32:46;9.02;;;4.38;;
59649;SDS011;46162;57.568;25.814;2023-11-19T05:35:16;8.60;;;4.10;;
59649;SDS011;46162;57.568;25.814;2023-11-19T05:37:45;11.40;;;4.80;;
59649;SDS011;46162;57.568;25.814;2023-11-19T05:40:13;9.50;;;5.03;;
59649;SDS011;46162;57.568;25.814;2023-11-19T05:42:42;10.38;;;5.03;;
59649;SDS011;46162;57.568;25.814;2023-11-19T05:45:11;11.95;;;4.82;;
59649;SDS011;46162;57.568;25.814;2023-11-19T05:47:40;9.68;;;5.10;;
59649;SDS011;46162;57.568;25.814;2023-11-19T05:50:10;9.40;;;4.75;;
59649;SDS011;46162;57.568;25.814;2023-11-19T05:52:40;9.85;;;4.68;;
59649;SDS011;46162;57.568;25.814;2023-11-19T05:55:10;9.77;;;4.15;;
59649;SDS011;46162;57.568;25.814;2023-11-19T05:57:39;7.93;;;4.55;;
59649;SDS011;46162;57.568;25.814;2023-11-19T06:00:11;10.05;;;4.97;;
59649;SDS011;46162;57.568;25.814;2023-11-19T06:02:42;9.32;;;4.05;;
59649;SDS011;46162;57.568;25.814;2023-11-19T06:05:11;9.80;;;4.53;;
59649;SDS011;46162;57.568;25.814;2023-11-19T06:07:42;9.70;;;5.10;;
59649;SDS011;46162;57.568;25.814;2023-11-19T06:10:10;9.73;;;5.13;;
59649;SDS011;46162;57.568;25.814;2023-11-19T06:12:41;10.97;;;4.60;;
59649;SDS011;46162;57.568;25.814;2023-11-19T06:15:10;11.57;;;4.70;;
59649;SDS011;46162;57.568;25.814;2023-11-19T06:17:38;8.82;;;4.38;;
59649;SDS011;46162;57.568;25.814;2023-11-19T06:20:08;10.88;;;4.82;;
59649;SDS011;46162;57.568;25.814;2023-11-19T06:22:38;9.77;;;4.25;;
59649;SDS011;46162;57.568;25.814;2023-11-19T06:25:10;10.13;;;4.57;;
59649;SDS011;46162;57.568;25.814;2023-11-19T06:27:42;9.68;;;3.88;;
59649;SDS011;46162;57.568;25.814;2023-11-19T06:30:11;9.02;;;3.90;;
59649;SDS011;46162;57.568;25.814;2023-11-19T06:32:40;9.40;;;4.68;;
59649;SDS011;46162;57.568;25.814;2023-11-19T06:35:10;10.50;;;4.07;;
59649;SDS011;46162;57.568;25.814;2023-11-19T06:37:40;9.90;;;4.70;;
59649;SDS011;46162;57.568;25.814;2023-11-19T06:40:12;8.95;;;4.07;;
59649;SDS011;46162;57.568;25.814;2023-11-19T06:42:43;12.05;;;4.25;;
59649;SDS011;46162;57.568;25.814;2023-11-19T06:45:11;10.18;;;4.47;;
59649;SDS011;46162;57.568;25.814;2023-11-19T06:47:40;8.38;;;3.80;;
59649;SDS011;46162;57.568;25.814;2023-11-19T06:50:09;11.05;;;4.30;;
59649;SDS011;46162;57.568;25.814;2023-11-19T06:52:39;10.25;;;4.40;;
59649;SDS011;46162;57.568;25.814;2023-11-19T06:55:08;8.40;;;3.65;;
59649;SDS011;46162;57.568;25.814;2023-11-19T06:57:38;8.10;;;4.07;;
59649;SDS011;46162;57.568;25.814;2023-11-19T07:00:08;8.93;;;3.90;;
59649;SDS011;46162;57.568;25.814;2023-11-19T07:02:38;9.02;;;4.32;;
59649;SDS011;46162;57.568;25.814;2023-11-19T07:05:07;9.63;;;3.95;;
59649;SDS011;46162;57.568;25.814;2023-11-19T07:07:36;8.88;;;3.95;;
59649;SDS011;46162;57.568;25.814;2023-11-19T07:10:06;8.98;;;4.07;;
59649;SDS011;46162;57.568;25.814;2023-11-19T07:12:38;8.85;;;4.07;;
59649;SDS011;46162;57.568;25.814;2023-11-19T07:15:07;8.23;;;3.78;;
59649;SDS011;46162;57.568;25.814;2023-11-19T07:17:38;11.10;;;4.07;;
59649;SDS011;46162;57.568;25.814;2023-11-19T07:20:07;9.18;;;4.43;;
59649;SDS011;46162;57.568;25.814;2023-11-19T07:22:42;9.07;;;4.55;;
59649;SDS011;46162;57.568;25.814;2023-11-19T07:25:12;11.18;;;4.70;;
59649;SDS011;46162;57.568;25.814;2023-11-19T07:27:43;9.65;;;4.22;;
59649;SDS011;46162;57.568;25.814;2023-11-19T07:30:14;7.63;;;3.60;;
59649;SDS011;46162;57.568;25.814;2023-11-19T07:32:45;9.05;;;3.92;;
59649;SDS011;46162;57.568;25.814;2023-11-19T07:35:14;8.02;;;4.00;;
59649;SDS011;46162;57.568;25.814;2023-11-19T07:37:43;8.35;;;3.38;;
59649;SDS011;46162;57.568;25.814;2023-11-19T07:40:12;9.07;;;4.07;;
59649;SDS011;46162;57.568;25.814;2023-11-19T07:42:43;9.40;;;4.30;;
59649;SDS011;46162;57.568;25.814;2023-11-19T07:45:12;9.88;;;4.50;;
59649;SDS011;46162;57.568;25.814;2023-11-19T07:47:41;10.35;;;4.20;;
59649;SDS011;46162;57.568;25.814;2023-11-19T07:50:12;6.95;;;3.22;;
59649;SDS011;46162;57.568;25.814;2023-11-19T07:52:43;9.07;;;3.53;;
59649;SDS011;46162;57.568;25.814;2023-11-19T07:55:12;10.35;;;3.58;;
59649;SDS011;46162;57.568;25.814;2023-11-19T07:57:42;9.30;;;3.83;;
59649;SDS011;46162;57.568;25.814;2023-11-19T08:00:12;8.45;;;3.60;;
59649;SDS011;46162;57.568;25.814;2023-11-19T08:02:41;8.52;;;3.83;;
59649;SDS011;46162;57.568;25.814;2023-11-19T08:05:10;9.68;;;3.88;;
59649;SDS011;46162;57.568;25.814;2023-11-19T08:07:39;7.15;;;3.45;;
59649;SDS011;46162;57.568;25.814;2023-11-19T08:10:08;8.57;;;3.60;;
59649;SDS011;46162;57.568;25.814;2023-11-19T08:12:37;8.60;;;3.92;;
59649;SDS011;46162;57.568;25.814;2023-11-19T08:15:08;8.85;;;3.80;;
59649;SDS011;46162;57.568;25.814;2023-11-19T08:17:38;10.27;;;4.20;;
59649;SDS011;46162;57.568;25.814;2023-11-19T08:20:07;11.55;;;3.97;;
59649;SDS011;46162;57.568;25.814;2023-11-19T08:22:38;9.65;;;4.20;;
59649;SDS011;46162;57.568;25.814;2023-11-19T08:25:07;9.73;;;4.32;;
59649;SDS011;46162;57.568;25.814;2023-11-19T08:27:37;9.45;;;4.00;;
59649;SDS011;46162;57.568;25.814;2023-11-19T08:30:08;9.18;;;3.60;;
59649;SDS011;46162;57.568;25.814;2023-11-19T08:32:38;10.32;;;4.82;;
59649;SDS011;46162;57.568;25.814;2023-11-19T08:35:07;9.85;;;4.03;;
59649;SDS011;46162;57.568;25.814;2023-11-19T08:37:40;11.55;;;4.50;;
59649;SDS011;46162;57.568;25.814;2023-11-19T08:40:10;7.13;;;3.45;;
59649;SDS011;46162;57.568;25.814;2023-11-19T08:42:39;9.65;;;4.45;;
59649;SDS011;46162;57.568;25.814;2023-11-19T08:45:10;8.30;;;3.67;;
59649;SDS011;46162;57.568;25.814;2023-11-19T08:47:39;10.60;;;4.97;;
59649;SDS011;46162;57.568;25.814;2023-11-19T08:50:08;8.10;;;4.10;;
59649;SDS011;46162;57.568;25.814;2023-11-19T08:52:37;10.43;;;4.35;;
59649;SDS011;46162;57.568;25.814;2023-11-19T08:55:06;11.20;;;4.00;;
59649;SDS011;46162;57.568;25.814;2023-11-19T08:57:36;10.50;;;3.47;;
59649;SDS011;46162;57.568;25.814;2023-11-19T09:00:05;8.27;;;4.13;;
59649;SDS011;46162;57.568;25.814;2023-11-19T09:02:36;9.55;;;4.13;;
59649;SDS011;46162;57.568;25.814;2023-11-19T09:05:06;11.18;;;4.22;;
59649;SDS011;46162;57.568;25.814;2023-11-19T09:07:35;8.67;;;4.33;;
59649;SDS011;46162;57.568;25.814;2023-11-19T09:10:05;8.98;;;3.70;;
59649;SDS011;46162;57.568;25.814;2023-11-19T09:12:36;9.10;;;4.55;;
59649;SDS011;46162;57.568;25.814;2023-11-19T09:15:05;8.48;;;3.67;;
59649;SDS011;46162;57.568;25.814;2023-11-19T09:17:39;9.48;;;4.10;;
59649;SDS011;46162;57.568;25.814;2023-11-19T09:20:08;7.95;;;3.65;;
59649;SDS011;46162;57.568;25.814;2023-11-19T09:22:40;7.80;;;3.55;;
59649;SDS011;46162;57.568;25.814;2023-11-19T09:25:08;8.98;;;4.32;;
59649;SDS011;46162;57.568;25.814;2023-11-19T09:27:37;8.45;;;3.67;;
59649;SDS011;46162;57.568;25.814;2023-11-19T09:30:06;7.40;;;4.10;;
59649;SDS011;46162;57.568;25.814;2023-11-19T09:32:36;8.23;;;3.70;;
59649;SDS011;46162;57.568;25.814;2023-11-19T09:35:08;8.75;;;4.00;;
59649;SDS011;46162;57.568;25.814;2023-11-19T09:37:40;8.07;;;3.70;;
59649;SDS011;46162;57.568;25.814;2023-11-19T09:42:58;8.75;;;3.38;;
59649;SDS011;46162;57.568;25.814;2023-11-19T09:45:28;9.27;;;4.10;;
59649;SDS011;46162;57.568;25.814;2023-11-19T09:48:00;11.10;;;4.10;;
59649;SDS011;46162;57.568;25.814;2023-11-19T09:50:31;8.18;;;3.55;;
59649;SDS011;46162;57.568;25.814;2023-11-19T09:53:00;9.67;;;3.80;;
59649;SDS011;46162;57.568;25.814;2023-11-19T09:55:29;9.02;;;3.53;;
59649;SDS011;46162;57.568;25.814;2023-11-19T09:57:58;9.80;;;4.03;;
59649;SDS011;46162;57.568;25.814;2023-11-19T10:00:30;9.57;;;4.30;;
59649;SDS011;46162;57.568;25.814;2023-11-19T10:03:09;7.47;;;3.67;;
59649;SDS011;46162;57.568;25.814;2023-11-19T10:08:23;9.52;;;3.55;;
59649;SDS011;46162;57.568;25.814;2023-11-19T10:10:56;7.28;;;3.47;;
59649;SDS011;46162;57.568;25.814;2023-11-19T10:15:58;11.15;;;3.72;;
59649;SDS011;46162;57.568;25.814;2023-11-19T10:18:26;8.63;;;3.90;;
59649;SDS011;46162;57.568;25.814;2023-11-19T10:20:56;8.70;;;4.22;;
59649;SDS011;46162;57.568;25.814;2023-11-19T10:23:26;9.77;;;4.05;;
59649;SDS011;46162;57.568;25.814;2023-11-19T10:25:55;9.18;;;4.15;;
59649;SDS011;46162;57.568;25.814;2023-11-19T10:28:37;8.88;;;3.58;;
59649;SDS011;46162;57.568;25.814;2023-11-19T10:31:09;9.40;;;4.15;;
59649;SDS011;46162;57.568;25.814;2023-11-19T10:33:38;10.07;;;3.50;;
59649;SDS011;46162;57.568;25.814;2023-11-19T10:36:08;9.18;;;3.95;;
59649;SDS011;46162;57.568;25.814;2023-11-19T10:38:38;8.30;;;4.00;;
59649;SDS011;46162;57.568;25.814;2023-11-19T10:41:08;10.38;;;4.45;;
59649;SDS011;46162;57.568;25.814;2023-11-19T10:43:42;9.23;;;4.90;;
59649;SDS011;46162;57.568;25.814;2023-11-19T10:46:13;9.93;;;4.05;;
59649;SDS011;46162;57.568;25.814;2023-11-19T10:48:47;9.07;;;4.43;;
59649;SDS011;46162;57.568;25.814;2023-11-19T10:51:19;13.90;;;4.85;;
59649;SDS011;46162;57.568;25.814;2023-11-19T10:53:50;8.55;;;4.03;;
59649;SDS011;46162;57.568;25.814;2023-11-19T10:56:21;10.38;;;4.80;;
59649;SDS011;46162;57.568;25.814;2023-11-19T10:58:53;9.90;;;4.25;;
59649;SDS011;46162;57.568;25.814;2023-11-19T11:01:26;9.73;;;4.43;;
59649;SDS011;46162;57.568;25.814;2023-11-19T11:04:00;9.52;;;4.15;;
59649;SDS011;46162;57.568;25.814;2023-11-19T11:06:33;9.30;;;4.55;;
59649;SDS011;46162;57.568;25.814;2023-11-19T11:09:03;11.73;;;4.20;;
59649;SDS011;46162;57.568;25.814;2023-11-19T11:11:31;9.93;;;4.03;;
59649;SDS011;46162;57.568;25.814;2023-11-19T11:14:02;10.57;;;4.70;;
59649;SDS011;46162;57.568;25.814;2023-11-19T11:16:31;10.40;;;4.68;;
59649;SDS011;46162;57.568;25.814;2023-11-19T11:19:00;10.25;;;4.28;;
59649;SDS011;46162;57.568;25.814;2023-11-19T11:21:29;10.18;;;4.32;;
59649;SDS011;46162;57.568;25.814;2023-11-19T11:24:07;9.73;;;4.80;;
59649;SDS011;46162;57.568;25.814;2023-11-19T11:26:58;12.85;;;5.20;;
59649;SDS011;46162;57.568;25.814;2023-11-19T11:29:44;9.65;;;4.05;;
59649;SDS011;46162;57.568;25.814;2023-11-19T11:32:25;28.27;;;4.57;;
59649;SDS011;46162;57.568;25.814;2023-11-19T11:35:08;11.02;;;4.13;;
59649;SDS011;46162;57.568;25.814;2023-11-19T11:37:54;8.25;;;3.75;;
59649;SDS011;46162;57.568;25.814;2023-11-19T11:40:30;13.70;;;4.38;;
59649;SDS011;46162;57.568;25.814;2023-11-19T11:42:58;7.45;;;3.22;;
59649;SDS011;46162;57.568;25.814;2023-11-19T11:45:39;8.40;;;3.67;;
59649;SDS011;46162;57.568;25.814;2023-11-19T11:48:14;10.25;;;3.70;;
59649;SDS011;46162;57.568;25.814;2023-11-19T11:50:47;7.63;;;3.63;;
59649;SDS011;46162;57.568;25.814;2023-11-19T11:53:19;10.15;;;3.53;;
59649;SDS011;46162;57.568;25.814;2023-11-19T11:55:54;9.27;;;3.22;;
59649;SDS011;46162;57.568;25.814;2023-11-19T11:58:32;9.20;;;3.72;;
59649;SDS011;46162;57.568;25.814;2023-11-19T12:01:04;8.82;;;3.95;;
59649;SDS011;46162;57.568;25.814;2023-11-19T12:03:36;9.43;;;3.92;;
59649;SDS011;46162;57.568;25.814;2023-11-19T12:06:06;8.93;;;3.75;;
59649;SDS011;46162;57.568;25.814;2023-11-19T12:08:35;8.30;;;3.50;;
59649;SDS011;46162;57.568;25.814;2023-11-19T12:11:08;9.48;;;3.50;;
59649;SDS011;46162;57.568;25.814;2023-11-19T12:13:46;7.38;;;3.42;;
59649;SDS011;46162;57.568;25.814;2023-11-19T12:16:20;8.52;;;4.00;;
59649;SDS011;46162;57.568;25.814;2023-11-19T12:18:50;9.30;;;3.97;;
59649;SDS011;46162;57.568;25.814;2023-11-19T12:21:31;12.25;;;3.60;;
59649;SDS011;46162;57.568;25.814;2023-11-19T12:24:03;8.68;;;4.03;;
59649;SDS011;46162;57.568;25.814;2023-11-19T12:26:36;9.82;;;4.18;;
59649;SDS011;46162;57.568;25.814;2023-11-19T12:29:06;10.13;;;4.53;;
59649;SDS011;46162;57.568;25.814;2023-11-19T12:31:36;11.98;;;4.63;;
59649;SDS011;46162;57.568;25.814;2023-11-19T12:34:07;8.40;;;4.30;;
59649;SDS011;46162;57.568;25.814;2023-11-19T12:36:40;10.82;;;4.05;;
59649;SDS011;46162;57.568;25.814;2023-11-19T12:39:09;8.95;;;3.85;;
59649;SDS011;46162;57.568;25.814;2023-11-19T12:41:54;11.63;;;3.90;;
59649;SDS011;46162;57.568;25.814;2023-11-19T12:44:26;10.20;;;4.38;;
59649;SDS011;46162;57.568;25.814;2023-11-19T12:47:01;11.05;;;4.25;;
59649;SDS011;46162;57.568;25.814;2023-11-19T12:49:31;9.90;;;3.70;;
59649;SDS011;46162;57.568;25.814;2023-11-19T12:52:00;11.32;;;4.53;;
59649;SDS011;46162;57.568;25.814;2023-11-19T12:54:32;10.55;;;4.15;;
59649;SDS011;46162;57.568;25.814;2023-11-19T12:57:04;8.88;;;4.03;;
59649;SDS011;46162;57.568;25.814;2023-11-19T12:59:33;10.48;;;4.45;;
59649;SDS011;46162;57.568;25.814;2023-11-19T13:02:02;8.93;;;3.90;;
59649;SDS011;46162;57.568;25.814;2023-11-19T13:04:33;7.03;;;3.47;;
59649;SDS011;46162;57.568;25.814;2023-11-19T13:07:01;11.50;;;4.68;;
59649;SDS011;46162;57.568;25.814;2023-11-19T13:09:32;11.35;;;4.65;;
59649;SDS011;46162;57.568;25.814;2023-11-19T13:12:11;10.32;;;4.50;;
59649;SDS011;46162;57.568;25.814;2023-11-19T13:14:43;8.65;;;4.28;;
59649;SDS011;46162;57.568;25.814;2023-11-19T13:17:14;8.52;;;4.03;;
59649;SDS011;46162;57.568;25.814;2023-11-19T13:19:42;10.32;;;4.85;;
59649;SDS011;46162;57.568;25.814;2023-11-19T13:22:12;10.60;;;4.78;;
59649;SDS011;46162;57.568;25.814;2023-11-19T13:24:40;8.70;;;4.18;;
59649;SDS011;46162;57.568;25.814;2023-11-19T13:27:09;9.48;;;4.60;;
59649;SDS011;46162;57.568;25.814;2023-11-19T13:29:40;10.88;;;4.50;;
59649;SDS011;46162;57.568;25.814;2023-11-19T13:32:08;9.63;;;4.18;;
59649;SDS011;46162;57.568;25.814;2023-11-19T13:34:37;11.55;;;4.97;;
59649;SDS011;46162;57.568;25.814;2023-11-19T13:37:06;13.30;;;4.90;;
59649;SDS011;46162;57.568;25.814;2023-11-19T13:39:35;11.23;;;4.70;;
59649;SDS011;46162;57.568;25.814;2023-11-19T13:42:04;9.93;;;4.60;;
59649;SDS011;46162;57.568;25.814;2023-11-19T13:44:35;9.70;;;4.55;;
59649;SDS011;46162;57.568;25.814;2023-11-19T13:47:13;9.55;;;4.32;;
59649;SDS011;46162;57.568;25.814;2023-11-19T13:49:46;8.63;;;4.72;;
59649;SDS011;46162;57.568;25.814;2023-11-19T13:52:20;11.85;;;4.63;;
59649;SDS011;46162;57.568;25.814;2023-11-19T13:54:57;10.13;;;4.60;;
59649;SDS011;46162;57.568;25.814;2023-11-19T13:57:26;8.43;;;4.05;;
59649;SDS011;46162;57.568;25.814;2023-11-19T13:59:58;8.95;;;3.90;;
59649;SDS011;46162;57.568;25.814;2023-11-19T14:02:28;9.95;;;4.57;;
59649;SDS011;46162;57.568;25.814;2023-11-19T14:04:57;12.13;;;4.88;;
59649;SDS011;46162;57.568;25.814;2023-11-19T14:07:25;9.95;;;5.03;;
59649;SDS011;46162;57.568;25.814;2023-11-19T14:09:54;10.45;;;4.20;;
59649;SDS011;46162;57.568;25.814;2023-11-19T14:12:23;11.88;;;4.40;;
59649;SDS011;46162;57.568;25.814;2023-11-19T14:14:51;9.52;;;4.28;;
59649;SDS011;46162;57.568;25.814;2023-11-19T14:17:21;8.57;;;3.50;;
59649;SDS011;46162;57.568;25.814;2023-11-19T14:19:53;7.25;;;3.65;;
59649;SDS011;46162;57.568;25.814;2023-11-19T14:22:22;11.68;;;4.53;;
59649;SDS011;46162;57.568;25.814;2023-11-19T14:24:51;11.15;;;4.93;;
59649;SDS011;46162;57.568;25.814;2023-11-19T14:27:20;11.88;;;4.75;;
59649;SDS011;46162;57.568;25.814;2023-11-19T14:29:49;8.85;;;4.82;;
59649;SDS011;46162;57.568;25.814;2023-11-19T14:32:17;8.77;;;4.05;;
59649;SDS011;46162;57.568;25.814;2023-11-19T14:34:46;10.88;;;4.50;;
59649;SDS011;46162;57.568;25.814;2023-11-19T14:37:16;10.27;;;4.40;;
59649;SDS011;46162;57.568;25.814;2023-11-19T14:39:45;11.75;;;5.18;;
59649;SDS011;46162;57.568;25.814;2023-11-19T14:42:15;11.25;;;4.72;;
59649;SDS011;46162;57.568;25.814;2023-11-19T14:44:44;9.25;;;4.68;;
59649;SDS011;46162;57.568;25.814;2023-11-19T14:47:13;10.88;;;4.55;;
59649;SDS011;46162;57.568;25.814;2023-11-19T14:49:42;11.20;;;5.40;;
59649;SDS011;46162;57.568;25.814;2023-11-19T14:52:10;12.13;;;5.82;;
59649;SDS011;46162;57.568;25.814;2023-11-19T14:54:44;13.52;;;6.28;;
59649;SDS011;46162;57.568;25.814;2023-11-19T14:57:12;13.33;;;5.27;;